Time;durP1;ratioP1;P1;durP2;ratioP2;P2;SDS_P1;SDS_P2;PMS_P1;PMS_P2;Temp;Humidity;BMP_temperature;BMP_pressure;BME280_temperature;BME280_humidity;BME280_pressure;Samples;Min_cycle;Max_cycle;Signal;HPM_P1;HPM_P2
2022/01/21 00:04:20;;;;;;;37.75;27.58;;;;;;;;;;12702064;28;20630;-77
2022/01/21 00:10:21;;;;;;;28.30;19.70;;;;;;;;;;12701049;28;20032;-78
2022/01/21 00:16:38;;;;;;;36.03;26.52;;;;;;;;;;12687847;27;20483;-76
2022/01/21 00:35:21;;;;;;;32.15;23.88;;;;;;;;;;12687471;28;20044;-76
2022/01/21 00:41:28;;;;;;;;;;;;;;;;;;12684869;27;20037;-76
2022/01/21 00:47:31;;;;;;;39.20;30.02;;;;;;;;;;12770884;27;19907;-76
2022/01/21 00:53:34;;;;;;;;;;;;;;;;;;12753674;27;20042;-77
2022/01/21 01:05:48;;;;;;;29.40;22.83;;;;;;;;;;12842018;27;20512;-77
2022/01/21 01:30:45;;;;;;;32.65;27.02;;;;;;;;;;12822289;27;20030;-77
2022/01/21 01:36:47;;;;;;;33.43;24.37;;;;;;;;;;12804798;27;20034;-77
2022/01/21 01:49:22;;;;;;;17.88;15.20;;;;;;;;;;12804679;27;20042;-77
2022/01/21 01:49:44;;;;;;;34.88;27.23;;;;;;;;;;12822004;27;20387;-76
2022/01/21 01:55:46;;;;;;;23.02;18.85;;;;;;;;;;12841546;27;20061;-77
2022/01/21 02:01:53;;;;;;;40.58;29.33;;;;;;;;;;12820720;27;20046;-77
2022/01/21 02:07:56;;;;;;;37.65;30.52;;;;;;;;;;12803619;27;20026;-76
2022/01/21 02:14:00;;;;;;;25.85;21.08;;;;;;;;;;12787137;27;20395;-76
2022/01/21 02:26:26;;;;;;;33.90;27.52;;;;;;;;;;12785613;27;20050;-76
2022/01/21 02:32:29;;;;;;;31.92;24.00;;;;;;;;;;12769306;27;20030;-76
2022/01/21 02:38:32;;;;;;;34.58;27.33;;;;;;;;;;12769270;27;20031;-76
2022/01/21 02:44:35;;;;;;;30.73;24.40;;;;;;;;;;12768047;27;20046;-77
2022/01/21 02:50:37;;;;;;;;;;;;;;;;;;12767955;27;20049;-76
2022/01/21 02:56:40;;;;;;;26.83;18.70;;;;;;;;;;12767197;27;20321;-76
2022/01/21 03:02:45;;;;;;;25.45;19.10;;;;;;;;;;12767063;27;20051;-76
2022/01/21 03:08:47;;;;;;;18.23;14.48;;;;;;;;;;12766356;27;20035;-77
2022/01/21 03:14:49;;;;;;;25.55;19.17;;;;;;;;;;12766931;27;20143;-75
2022/01/21 03:21:09;;;;;;;24.10;18.13;;;;;;;;;;12588750;28;20549;-76
2022/01/21 03:27:12;;;;;;;33.35;24.17;;;;;;;;;;12569549;28;20029;-77
2022/01/21 03:33:14;;;;;;;35.13;26.08;;;;;;;;;;12586130;28;20043;-76
2022/01/21 03:39:19;;;;;;;29.30;22.50;;;;;;;;;;12569448;28;20048;-77
2022/01/21 03:45:21;;;;;;;31.55;23.15;;;;;;;;;;12585261;28;20040;-76
2022/01/21 03:51:23;;;;;;;21.13;16.58;;;;;;;;;;12568460;28;20087;-76
2022/01/21 03:57:25;;;;;;;22.17;15.87;;;;;;;;;;12570392;28;20045;-77
2022/01/21 04:03:28;;;;;;;30.80;22.23;;;;;;;;;;12585426;28;20028;-77
2022/01/21 04:09:30;;;;;;;34.60;24.65;;;;;;;;;;12567667;28;20037;-77
2022/01/21 04:15:32;;;;;;;33.60;22.80;;;;;;;;;;12584732;28;20063;-76
2022/01/21 04:21:34;;;;;;;30.70;21.93;;;;;;;;;;12583393;28;20375;-77
2022/01/21 04:27:38;;;;;;;28.45;20.30;;;;;;;;;;12560370;28;20029;-77
2022/01/21 04:33:40;;;;;;;24.40;18.17;;;;;;;;;;12551177;28;20029;-77
2022/01/21 04:40:18;;;;;;;34.73;25.20;;;;;;;;;;12534693;28;20045;-77
2022/01/21 04:52:32;;;;;;;26.38;19.80;;;;;;;;;;12550572;28;20037;-77
2022/01/21 04:58:42;;;;;;;32.63;24.08;;;;;;;;;;12533326;28;20478;-76
2022/01/21 05:04:44;;;;;;;33.30;26.10;;;;;;;;;;12532379;28;20029;-75
2022/01/21 05:10:47;;;;;;;38.45;27.35;;;;;;;;;;12531852;28;20040;-76
2022/01/21 05:16:51;;;;;;;39.93;26.40;;;;;;;;;;12531039;28;20053;-76
2022/01/21 05:22:54;;;;;;;36.08;24.58;;;;;;;;;;12532315;28;20486;-77
2022/01/21 05:34:54;;;;;;;39.33;25.60;;;;;;;;;;12703921;27;20485;-76
2022/01/21 05:41:03;;;;;;;37.65;25.80;;;;;;;;;;12720958;28;20880;-76
2022/01/21 05:47:27;;;;;;;24.30;17.83;;;;;;;;;;12723578;28;20058;-76
2022/01/21 05:53:56;;;;;;;30.70;21.60;;;;;;;;;;12706369;28;20048;-75
2022/01/21 06:00:04;;;;;;;29.85;21.75;;;;;;;;;;12720154;28;20035;-76
2022/01/21 06:06:06;;;;;;;40.22;26.10;;;;;;;;;;12703038;28;20046;-76
2022/01/21 06:12:08;;;;;;;29.40;21.98;;;;;;;;;;12701751;28;20396;-76
2022/01/21 06:18:10;;;;;;;30.00;18.63;;;;;;;;;;12702028;28;20036;-76
2022/01/21 06:24:13;;;;;;;30.30;20.23;;;;;;;;;;12702162;28;20038;-76
2022/01/21 06:30:14;;;;;;;21.70;15.90;;;;;;;;;;12717885;28;20399;-76
2022/01/21 06:36:16;;;;;;;40.10;28.45;;;;;;;;;;12716101;28;20392;-76
2022/01/21 06:42:23;;;;;;;22.02;16.27;;;;;;;;;;12688597;28;20039;-76
2022/01/21 06:48:25;;;;;;;53.67;37.97;;;;;;;;;;12691444;27;20035;-76
2022/01/21 06:54:27;;;;;;;41.17;28.03;;;;;;;;;;12656212;27;20039;-76
2022/01/21 07:00:29;;;;;;;60.05;40.03;;;;;;;;;;12662199;28;20039;-77
2022/01/21 07:06:31;;;;;;;45.80;30.90;;;;;;;;;;12664674;28;20043;-77
2022/01/21 07:12:33;;;;;;;52.07;33.73;;;;;;;;;;12653190;27;20047;-75
2022/01/21 07:18:35;;;;;;;52.63;36.80;;;;;;;;;;12665442;28;20030;-75
2022/01/21 07:24:37;;;;;;;41.90;30.45;;;;;;;;;;12675400;28;20039;-76
2022/01/21 07:30:38;;;;;;;49.50;35.10;;;;;;;;;;12665211;28;20056;-77
2022/01/21 07:42:19;;;;;;;39.90;30.42;;;;;;;;;;12673759;27;20494;-84
2022/01/21 07:48:22;;;;;;;50.87;34.63;;;;;;;;;;12597315;28;20039;-74
2022/01/21 07:54:23;;;;;;;51.70;38.08;;;;;;;;;;12624073;28;20032;-79
2022/01/21 08:00:25;;;;;;;50.72;36.65;;;;;;;;;;12629325;28;20037;-76
2022/01/21 08:06:28;;;;;;;40.80;30.13;;;;;;;;;;12636966;28;20024;-76
2022/01/21 08:12:29;;;;;;;44.50;32.58;;;;;;;;;;12636686;28;20337;-76
2022/01/21 08:18:31;;;;;;;44.60;34.53;;;;;;;;;;12624787;28;20040;-77
2022/01/21 08:24:33;;;;;;;44.08;33.55;;;;;;;;;;12612343;28;20389;-78
2022/01/21 08:30:35;;;;;;;47.38;40.58;;;;;;;;;;12628366;28;20039;-78
2022/01/21 08:36:38;;;;;;;41.80;35.30;;;;;;;;;;12609829;28;20052;-77
2022/01/21 08:42:40;;;;;;;40.47;35.20;;;;;;;;;;12615655;28;20406;-78
2022/01/21 08:48:44;;;;;;;32.88;29.27;;;;;;;;;;12622234;28;20040;-78
2022/01/21 08:54:46;;;;;;;32.88;29.05;;;;;;;;;;12585932;28;20040;-76
2022/01/21 09:00:48;;;;;;;28.47;24.60;;;;;;;;;;12585706;28;20040;-77
2022/01/21 09:06:50;;;;;;;30.90;25.85;;;;;;;;;;12585485;28;20043;-77
2022/01/21 09:12:52;;;;;;;28.13;25.13;;;;;;;;;;12574761;28;20048;-78
2022/01/21 09:18:56;;;;;;;28.40;24.80;;;;;;;;;;12579143;28;20040;-78
2022/01/21 09:24:58;;;;;;;27.92;24.85;;;;;;;;;;12607504;28;20385;-78
2022/01/21 09:31:01;;;;;;;24.48;21.75;;;;;;;;;;12598489;28;20043;-78
2022/01/21 09:37:03;;;;;;;20.53;17.87;;;;;;;;;;12594503;28;20418;-78
2022/01/21 09:43:08;;;;;;;20.43;18.17;;;;;;;;;;12581139;28;20029;-77
2022/01/21 09:49:26;;;;;;;20.70;17.80;;;;;;;;;;12583642;28;20028;-78
2022/01/21 09:55:28;;;;;;;17.65;15.75;;;;;;;;;;12557662;28;20060;-76
2022/01/21 10:01:30;;;;;;;14.13;12.63;;;;;;;;;;12578906;28;20036;-78
2022/01/21 10:07:34;;;;;;;12.23;10.90;;;;;;;;;;12585137;28;20039;-79
2022/01/21 10:13:36;;;;;;;14.25;12.85;;;;;;;;;;12576924;28;20035;-79
2022/01/21 10:19:39;;;;;;;12.40;11.10;;;;;;;;;;12565209;28;20044;-80
2022/01/21 10:25:41;;;;;;;18.92;16.20;;;;;;;;;;12570109;28;20039;-78
2022/01/21 10:31:53;;;;;;;13.00;11.70;;;;;;;;;;12572124;28;20028;-75
2022/01/21 10:37:58;;;;;;;11.38;9.80;;;;;;;;;;12586933;28;20149;-77
2022/01/21 10:44:05;;;;;;;12.20;10.88;;;;;;;;;;12583995;28;20063;-77
2022/01/21 10:50:06;;;;;;;18.35;16.40;;;;;;;;;;12577727;28;20047;-78
2022/01/21 10:56:12;;;;;;;11.35;10.23;;;;;;;;;;12577799;28;20037;-78
2022/01/21 11:02:14;;;;;;;9.27;8.35;;;;;;;;;;12584313;28;20402;-78
2022/01/21 11:08:17;;;;;;;9.40;8.13;;;;;;;;;;12585260;28;20029;-77
2022/01/21 11:14:18;;;;;;;;;;;;;;;;;;12568501;28;20032;-78
2022/01/21 11:20:23;;;;;;;7.30;6.55;;;;;;;;;;12572080;28;19916;-78
2022/01/21 11:26:24;;;;;;;5.53;5.03;;;;;;;;;;12557398;28;20410;-77
2022/01/21 11:32:26;;;;;;;5.55;5.05;;;;;;;;;;12565102;28;20028;-77
2022/01/21 11:38:29;;;;;;;6.03;5.45;;;;;;;;;;12567480;28;20635;-78
2022/01/21 11:44:33;;;;;;;;;;;;;;;;;;12562616;28;20028;-77
2022/01/21 11:50:34;;;;;;;4.55;4.13;;;;;;;;;;12574224;28;19908;-78
2022/01/21 11:56:39;;;;;;;3.72;3.42;;;;;;;;;;12556812;28;20040;-78
2022/01/21 12:02:49;;;;;;;4.35;3.90;;;;;;;;;;12556035;28;20037;-78
2022/01/21 12:08:51;;;;;;;3.10;2.58;;;;;;;;;;12591882;28;20047;-78
2022/01/21 12:15:02;;;;;;;3.33;2.28;;;;;;;;;;12579948;28;20116;-77
2022/01/21 12:21:24;;;;;;;4.30;2.83;;;;;;;;;;12589146;28;20040;-77
2022/01/21 12:27:26;;;;;;;2.10;1.90;;;;;;;;;;12591723;28;20394;-77
2022/01/21 12:33:49;;;;;;;2.80;2.50;;;;;;;;;;12599317;28;20473;-78
2022/01/21 12:39:51;;;;;;;;;;;;;;;;;;12601346;28;20053;-78
2022/01/21 12:46:03;;;;;;;2.53;2.00;;;;;;;;;;12599658;28;19919;-78
2022/01/21 12:58:07;;;;;;;3.05;2.20;;;;;;;;;;12600104;28;20044;-80
2022/01/21 13:04:27;;;;;;;2.50;1.50;;;;;;;;;;12582079;28;20032;-77
2022/01/21 13:10:29;;;;;;;2.28;1.50;;;;;;;;;;12599281;28;20043;-78
2022/01/21 13:16:32;;;;;;;2.65;2.08;;;;;;;;;;12599796;28;20037;-77
2022/01/21 13:22:37;;;;;;;;;;;;;;;;;;12598508;28;20478;-77
2022/01/21 13:28:54;;;;;;;2.58;1.65;;;;;;;;;;12598939;28;19909;-78
2022/01/21 13:35:16;;;;;;;1.75;1.30;;;;;;;;;;12598821;28;20043;-77
2022/01/21 13:41:18;;;;;;;3.53;2.00;;;;;;;;;;12598495;28;20068;-78
2022/01/21 13:47:39;;;;;;;2.83;1.50;;;;;;;;;;12597445;28;20032;-77
2022/01/21 13:53:42;;;;;;;2.20;1.30;;;;;;;;;;12579929;28;20481;-78
2022/01/21 13:59:46;;;;;;;1.92;1.58;;;;;;;;;;12596320;28;20040;-78
2022/01/21 14:05:47;;;;;;;1.10;1.10;;;;;;;;;;12595676;28;20040;-78
2022/01/21 14:11:49;;;;;;;1.13;0.98;;;;;;;;;;12580303;28;20033;-78
2022/01/21 14:17:50;;;;;;;1.65;0.82;;;;;;;;;;12595701;28;20051;-77
2022/01/21 14:23:54;;;;;;;1.20;1.10;;;;;;;;;;12578387;28;20036;-77
2022/01/21 14:30:00;;;;;;;1.63;1.52;;;;;;;;;;12577855;28;20500;-77
2022/01/21 14:36:11;;;;;;;1.95;1.20;;;;;;;;;;12594755;28;20048;-77
2022/01/21 14:42:22;;;;;;;1.52;1.05;;;;;;;;;;12594186;28;20049;-78
2022/01/21 14:48:26;;;;;;;2.92;1.77;;;;;;;;;;12594872;28;20048;-77
2022/01/21 14:54:28;;;;;;;1.90;1.40;;;;;;;;;;12593672;28;20075;-77
2022/01/21 15:00:40;;;;;;;1.83;1.30;;;;;;;;;;12593447;28;20036;-78
2022/01/21 15:06:42;;;;;;;1.08;1.08;;;;;;;;;;12601886;28;20032;-78
2022/01/21 15:19:05;;;;;;;3.35;2.45;;;;;;;;;;12681964;28;20043;-77
2022/01/21 15:25:07;;;;;;;2.55;2.08;;;;;;;;;;12676747;28;20408;-77
2022/01/21 15:31:09;;;;;;;3.67;3.38;;;;;;;;;;12695063;28;20491;-79
2022/01/21 15:37:13;;;;;;;5.20;3.97;;;;;;;;;;12675523;28;20048;-78
2022/01/21 15:43:14;;;;;;;3.50;3.20;;;;;;;;;;12676391;28;20059;-77
2022/01/21 15:49:16;;;;;;;4.63;4.10;;;;;;;;;;12677323;28;20036;-77
2022/01/21 15:55:19;;;;;;;4.60;4.20;;;;;;;;;;12694374;28;20034;-76
2022/01/21 16:01:20;;;;;;;3.33;3.03;;;;;;;;;;12682470;28;20039;-77
2022/01/21 16:07:22;;;;;;;2.83;2.35;;;;;;;;;;12686723;28;20040;-77
2022/01/21 16:13:24;;;;;;;3.67;2.25;;;;;;;;;;12685728;28;20055;-76
2022/01/21 16:19:25;;;;;;;4.05;2.33;;;;;;;;;;12685030;28;20050;-77
2022/01/21 16:25:27;;;;;;;3.63;3.33;;;;;;;;;;12684923;28;20400;-78
2022/01/21 16:31:29;;;;;;;3.60;3.30;;;;;;;;;;12685971;28;20369;-77
2022/01/21 16:37:30;;;;;;;3.33;3.03;;;;;;;;;;12667311;28;20046;-78
2022/01/21 16:43:32;;;;;;;4.00;3.60;;;;;;;;;;12683848;28;20046;-77
2022/01/21 16:49:34;;;;;;;5.45;5.03;;;;;;;;;;12667216;28;20047;-78
2022/01/21 16:55:36;;;;;;;6.18;5.22;;;;;;;;;;12666611;28;20046;-78
2022/01/21 17:01:37;;;;;;;10.20;8.48;;;;;;;;;;12701147;28;20048;-78
2022/01/21 17:07:39;;;;;;;4.68;4.30;;;;;;;;;;12701077;28;20040;-77
2022/01/21 17:13:41;;;;;;;8.10;6.80;;;;;;;;;;12699908;28;20032;-77
2022/01/21 17:19:44;;;;;;;6.13;5.15;;;;;;;;;;12700123;28;20055;-77
2022/01/21 17:25:46;;;;;;;6.10;5.57;;;;;;;;;;12699884;28;20034;-77
2022/01/21 17:31:48;;;;;;;5.57;4.80;;;;;;;;;;12699735;28;20040;-77
2022/01/21 17:37:49;;;;;;;5.65;5.15;;;;;;;;;;12699150;28;20056;-77
2022/01/21 17:43:57;;;;;;;5.38;4.88;;;;;;;;;;12681243;28;20040;-77
2022/01/21 17:49:58;;;;;;;6.93;5.82;;;;;;;;;;12698939;28;20042;-77
2022/01/21 17:56:00;;;;;;;6.13;5.53;;;;;;;;;;12680577;28;20038;-77
2022/01/21 18:02:02;;;;;;;5.38;4.88;;;;;;;;;;12680072;28;20063;-77
2022/01/21 18:08:04;;;;;;;6.07;5.07;;;;;;;;;;12680796;28;20040;-77
2022/01/21 18:14:06;;;;;;;8.23;6.72;;;;;;;;;;12698201;28;20036;-77
2022/01/21 18:20:08;;;;;;;11.07;8.50;;;;;;;;;;12679188;28;20044;-76
2022/01/21 18:26:11;;;;;;;11.18;9.00;;;;;;;;;;12678900;28;20042;-76
2022/01/21 18:32:13;;;;;;;12.77;9.45;;;;;;;;;;12697402;28;20050;-76
2022/01/21 18:38:14;;;;;;;13.05;10.48;;;;;;;;;;12678294;28;20047;-77
2022/01/21 18:44:17;;;;;;;17.33;13.00;;;;;;;;;;12699125;28;20392;-76
2022/01/21 18:50:21;;;;;;;22.38;16.60;;;;;;;;;;12700253;28;20100;-76
2022/01/21 18:56:23;;;;;;;24.73;17.48;;;;;;;;;;12677205;28;20035;-77
2022/01/21 19:02:29;;;;;;;26.67;19.05;;;;;;;;;;12694777;28;20047;-77
2022/01/21 19:08:31;;;;;;;26.17;19.33;;;;;;;;;;12677036;28;20106;-76
2022/01/21 19:14:33;;;;;;;31.55;23.75;;;;;;;;;;12676445;28;20035;-76
2022/01/21 19:20:35;;;;;;;31.42;24.83;;;;;;;;;;12694174;28;20047;-77
2022/01/21 19:32:58;;;;;;;32.88;27.40;;;;;;;;;;12694130;28;20039;-77
2022/01/21 19:39:00;;;;;;;58.20;39.17;;;;;;;;;;12675303;28;20051;-77
2022/01/21 19:45:07;;;;;;;41.97;31.55;;;;;;;;;;12694044;28;20028;-76
2022/01/21 19:51:08;;;;;;;32.40;25.20;;;;;;;;;;12693374;28;20046;-77
2022/01/21 19:57:23;;;;;;;32.38;24.23;;;;;;;;;;12675832;28;20031;-76
2022/01/21 20:09:47;;;;;;;43.95;32.45;;;;;;;;;;12676380;28;20055;-76
2022/01/21 20:15:49;;;;;;;36.97;28.17;;;;;;;;;;12674881;28;20598;-76
2022/01/21 20:21:51;;;;;;;36.85;26.10;;;;;;;;;;12675678;28;20051;-76
2022/01/21 20:27:53;;;;;;;40.80;29.90;;;;;;;;;;12693087;28;20042;-76
2022/01/21 20:33:55;;;;;;;35.92;27.67;;;;;;;;;;12693033;28;20036;-76
2022/01/21 20:40:38;;;;;;;37.20;30.60;;;;;;;;;;12616208;28;20050;-76
2022/01/21 20:46:40;;;;;;;35.00;27.10;;;;;;;;;;12697683;28;20027;-76
2022/01/21 20:52:42;;;;;;;34.63;27.57;;;;;;;;;;12667155;28;20031;-76
2022/01/21 20:58:44;;;;;;;34.75;27.92;;;;;;;;;;12683250;28;20047;-76
2022/01/21 21:04:46;;;;;;;33.97;28.17;;;;;;;;;;12701424;28;20023;-77
2022/01/21 21:10:51;;;;;;;30.95;26.77;;;;;;;;;;12683510;28;20044;-76
2022/01/21 21:16:55;;;;;;;30.45;26.88;;;;;;;;;;12700909;28;20036;-76
2022/01/21 23:04:13;;;;;;;32.90;29.58;;;;;;;;;;12695557;28;20046;-77
2022/01/21 23:10:15;;;;;;;35.30;31.77;;;;;;;;;;12677382;28;20035;-77
2022/01/21 23:16:16;;;;;;;31.08;28.00;;;;;;;;;;12677141;28;20392;-77
2022/01/21 23:22:18;;;;;;;30.60;27.48;;;;;;;;;;12676821;28;20036;-77
2022/01/21 23:28:23;;;;;;;32.85;29.50;;;;;;;;;;12676821;28;20122;-77
2022/01/21 23:34:29;;;;;;;34.05;30.65;;;;;;;;;;12694726;28;20522;-77
2022/01/21 23:40:31;;;;;;;31.35;28.15;;;;;;;;;;12694485;28;20056;-76
2022/01/21 23:46:33;;;;;;;34.80;31.30;;;;;;;;;;12675910;28;20036;-76
2022/01/21 23:52:37;;;;;;;34.85;26.15;;;;;;;;;;12676123;28;20042;-76
2022/01/21 23:58:38;;;;;;;31.38;27.73;;;;;;;;;;12694066;28;20058;-76
